sensor_id;sensor_type;location;lat;lon;timestamp;pressure;altitude;pressure_sealevel;temperature;humidity
13420;BME280;6781;58.440;15.470;2023-01-26T00:02:13;102899.03;;;3.43;100.00
13420;BME280;6781;58.440;15.470;2023-01-26T00:04:39;102899.00;;;3.44;100.00
13420;BME280;6781;58.440;15.470;2023-01-26T00:07:08;102889.59;;;3.45;100.00
13420;BME280;6781;58.440;15.470;2023-01-26T00:09:35;102878.50;;;3.43;100.00
13420;BME280;6781;58.440;15.470;2023-01-26T00:12:02;102871.69;;;3.42;100.00
13420;BME280;6781;58.440;15.470;2023-01-26T00:14:29;102871.69;;;3.42;100.00
13420;BME280;6781;58.440;15.470;2023-01-26T00:17:14;102874.19;;;3.45;100.00
13420;BME280;6781;58.440;15.470;2023-01-26T00:19:41;102857.13;;;3.44;100.00
13420;BME280;6781;58.440;15.470;2023-01-26T00:22:09;102852.00;;;3.44;100.00
13420;BME280;6781;58.440;15.470;2023-01-26T00:24:35;102857.03;;;3.47;100.00
13420;BME280;6781;58.440;15.470;2023-01-26T00:27:03;102856.22;;;3.46;100.00
13420;BME280;6781;58.440;15.470;2023-01-26T00:29:30;102859.56;;;3.50;100.00
13420;BME280;6781;58.440;15.470;2023-01-26T00:31:56;102857.00;;;3.50;100.00
13420;BME280;6781;58.440;15.470;2023-01-26T00:34:23;102851.88;;;3.50;100.00
13420;BME280;6781;58.440;15.470;2023-01-26T00:36:50;102856.97;;;3.53;100.00
13420;BME280;6781;58.440;15.470;2023-01-26T00:39:18;102855.28;;;3.52;100.00
13420;BME280;6781;58.440;15.470;2023-01-26T00:41:45;102856.16;;;3.51;100.00
13420;BME280;6781;58.440;15.470;2023-01-26T00:44:29;102850.97;;;3.54;100.00
13420;BME280;6781;58.440;15.470;2023-01-26T00:46:56;102845.03;;;3.50;100.00
13420;BME280;6781;58.440;15.470;2023-01-26T00:49:23;102856.97;;;3.53;100.00
13420;BME280;6781;58.440;15.470;2023-01-26T00:51:50;102853.56;;;3.52;100.00
13420;BME280;6781;58.440;15.470;2023-01-26T00:54:18;102850.09;;;3.55;100.00
13420;BME280;6781;58.440;15.470;2023-01-26T00:56:45;102845.81;;;3.55;100.00
13420;BME280;6781;58.440;15.470;2023-01-26T00:59:12;102851.81;;;3.56;100.00
13420;BME280;6781;58.440;15.470;2023-01-26T01:01:39;102846.66;;;3.56;100.00
13420;BME280;6781;58.440;15.470;2023-01-26T01:04:06;102838.09;;;3.57;100.00
13420;BME280;6781;58.440;15.470;2023-01-26T01:06:33;102844.09;;;3.57;100.00
13420;BME280;6781;58.440;15.470;2023-01-26T01:08:59;102832.97;;;3.57;100.00
13420;BME280;6781;58.440;15.470;2023-01-26T01:11:28;102845.75;;;3.62;100.00
13420;BME280;6781;58.440;15.470;2023-01-26T01:13:54;102844.84;;;3.64;100.00
13420;BME280;6781;58.440;15.470;2023-01-26T01:16:21;102843.16;;;3.63;100.00
13420;BME280;6781;58.440;15.470;2023-01-26T01:18:51;102832.94;;;3.60;100.00
13420;BME280;6781;58.440;15.470;2023-01-26T01:21:18;102820.09;;;3.60;100.00
13420;BME280;6781;58.440;15.470;2023-01-26T01:23:45;102824.38;;;3.61;100.00
13420;BME280;6781;58.440;15.470;2023-01-26T01:26:12;102826.09;;;3.60;100.00
13420;BME280;6781;58.440;15.470;2023-01-26T01:28:41;102834.59;;;3.64;100.00
13420;BME280;6781;58.440;15.470;2023-01-26T01:31:09;102834.53;;;3.67;100.00
13420;BME280;6781;58.440;15.470;2023-01-26T01:33:36;102845.59;;;3.72;100.00
13420;BME280;6781;58.440;15.470;2023-01-26T01:36:04;102840.47;;;3.71;100.00
13420;BME280;6781;58.440;15.470;2023-01-26T01:38:31;102844.78;;;3.70;100.00
13420;BME280;6781;58.440;15.470;2023-01-26T01:40:58;102840.47;;;3.71;100.00
13420;BME280;6781;58.440;15.470;2023-01-26T01:43:25;102834.50;;;3.70;100.00
13420;BME280;6781;58.440;15.470;2023-01-26T01:45:53;102825.03;;;3.74;100.00
13420;BME280;6781;58.440;15.470;2023-01-26T01:48:22;102826.78;;;3.72;100.00
13420;BME280;6781;58.440;15.470;2023-01-26T01:50:50;102827.63;;;3.72;100.00
13420;BME280;6781;58.440;15.470;2023-01-26T01:53:19;102824.19;;;3.73;100.00
13420;BME280;6781;58.440;15.470;2023-01-26T01:55:50;102823.31;;;3.76;100.00
13420;BME280;6781;58.440;15.470;2023-01-26T01:58:18;102824.19;;;3.73;100.00
13420;BME280;6781;58.440;15.470;2023-01-26T02:00:45;102822.47;;;3.75;100.00
13420;BME280;6781;58.440;15.470;2023-01-26T02:03:13;102818.16;;;3.77;100.00
13420;BME280;6781;58.440;15.470;2023-01-26T02:05:48;102816.44;;;3.76;100.00
13420;BME280;6781;58.440;15.470;2023-01-26T02:08:18;102815.63;;;3.74;100.00
13420;BME280;6781;58.440;15.470;2023-01-26T02:10:45;102827.59;;;3.75;100.00
13420;BME280;6781;58.440;15.470;2023-01-26T02:13:12;102830.13;;;3.77;100.00
13420;BME280;6781;58.440;15.470;2023-01-26T02:15:41;102827.59;;;3.75;100.00
13420;BME280;6781;58.440;15.470;2023-01-26T02:18:08;102834.41;;;3.76;100.00
13420;BME280;6781;58.440;15.470;2023-01-26T02:20:39;102844.69;;;3.76;100.00
13420;BME280;6781;58.440;15.470;2023-01-26T02:23:09;102845.50;;;3.80;100.00
13420;BME280;6781;58.440;15.470;2023-01-26T02:25:43;102839.50;;;3.79;100.00
13420;BME280;6781;58.440;15.470;2023-01-26T02:28:14;102838.66;;;3.79;100.00
13420;BME280;6781;58.440;15.470;2023-01-26T02:30:42;102837.78;;;3.80;100.00
13420;BME280;6781;58.440;15.470;2023-01-26T02:33:13;102842.06;;;3.81;100.00
13420;BME280;6781;58.440;15.470;2023-01-26T02:35:40;102838.69;;;3.77;100.00
13420;BME280;6781;58.440;15.470;2023-01-26T02:38:07;102846.31;;;3.82;100.00
13420;BME280;6781;58.440;15.470;2023-01-26T02:40:36;102848.91;;;3.80;100.00
13420;BME280;6781;58.440;15.470;2023-01-26T02:43:04;102860.81;;;3.86;100.00
13420;BME280;6781;58.440;15.470;2023-01-26T02:45:31;102874.47;;;3.86;100.00
13420;BME280;6781;58.440;15.470;2023-01-26T02:47:59;102876.19;;;3.87;100.00
13420;BME280;6781;58.440;15.470;2023-01-26T02:50:30;102873.63;;;3.87;100.00
13420;BME280;6781;58.440;15.470;2023-01-26T02:52:56;102882.19;;;3.86;100.00
13420;BME280;6781;58.440;15.470;2023-01-26T02:55:23;102883.88;;;3.87;100.00
13420;BME280;6781;58.440;15.470;2023-01-26T02:57:50;102883.03;;;3.87;100.00
13420;BME280;6781;58.440;15.470;2023-01-26T03:00:17;102885.59;;;3.88;100.00
13420;BME280;6781;58.440;15.470;2023-01-26T03:02:46;102880.44;;;3.88;100.00
13420;BME280;6781;58.440;15.470;2023-01-26T03:07:49;102891.56;;;3.89;100.00
13420;BME280;6781;58.440;15.470;2023-01-26T03:10:16;102894.06;;;3.93;100.00
13420;BME280;6781;58.440;15.470;2023-01-26T03:12:43;102897.50;;;3.92;100.00
13420;BME280;6781;58.440;15.470;2023-01-26T03:15:10;102896.66;;;3.92;100.00
13420;BME280;6781;58.440;15.470;2023-01-26T03:18:01;102912.91;;;3.92;100.00
13420;BME280;6781;58.440;15.470;2023-01-26T03:21:01;102904.34;;;3.93;100.00
13420;BME280;6781;58.440;15.470;2023-01-26T03:23:45;102906.03;;;3.95;100.00
13420;BME280;6781;58.440;15.470;2023-01-26T03:26:29;102912.00;;;3.97;100.00
13420;BME280;6781;58.440;15.470;2023-01-26T03:29:13;102900.06;;;3.92;100.00
13420;BME280;6781;58.440;15.470;2023-01-26T03:31:39;102909.44;;;3.97;100.00
13420;BME280;6781;58.440;15.470;2023-01-26T03:34:08;102905.97;;;3.99;100.00
13420;BME280;6781;58.440;15.470;2023-01-26T03:36:35;102906.91;;;3.93;100.00
13420;BME280;6781;58.440;15.470;2023-01-26T03:39:02;102912.88;;;3.94;100.00
13420;BME280;6781;58.440;15.470;2023-01-26T03:41:29;102921.44;;;3.95;100.00
13420;BME280;6781;58.440;15.470;2023-01-26T03:44:13;102923.97;;;3.98;100.00
13420;BME280;6781;58.440;15.470;2023-01-26T03:46:57;102920.59;;;3.94;100.00
13420;BME280;6781;58.440;15.470;2023-01-26T03:49:43;102922.31;;;3.93;100.00
13420;BME280;6781;58.440;15.470;2023-01-26T03:52:27;102931.72;;;3.93;100.00
13420;BME280;6781;58.440;15.470;2023-01-26T03:55:13;102929.13;;;3.96;100.00
13420;BME280;6781;58.440;15.470;2023-01-26T03:57:57;102935.97;;;3.96;100.00
13420;BME280;6781;58.440;15.470;2023-01-26T04:00:24;102931.72;;;3.93;100.00
13420;BME280;6781;58.440;15.470;2023-01-26T04:02:51;102932.59;;;3.92;100.00
13420;BME280;6781;58.440;15.470;2023-01-26T04:05:36;102936.88;;;3.91;100.00
13420;BME280;6781;58.440;15.470;2023-01-26T04:08:21;102940.31;;;3.90;100.00
13420;BME280;6781;58.440;15.470;2023-01-26T04:10:51;102951.44;;;3.91;100.00
13420;BME280;6781;58.440;15.470;2023-01-26T04:13:18;102956.59;;;3.89;100.00
13420;BME280;6781;58.440;15.470;2023-01-26T04:16:02;102960.88;;;3.87;100.00
13420;BME280;6781;58.440;15.470;2023-01-26T04:18:46;102961.75;;;3.86;100.00
13420;BME280;6781;58.440;15.470;2023-01-26T04:21:32;102970.28;;;3.88;100.00
13420;BME280;6781;58.440;15.470;2023-01-26T04:24:00;102969.44;;;3.86;100.00
13420;BME280;6781;58.440;15.470;2023-01-26T04:26:34;102983.13;;;3.88;100.00
13420;BME280;6781;58.440;15.470;2023-01-26T04:29:01;102990.00;;;3.86;100.00
13420;BME280;6781;58.440;15.470;2023-01-26T04:31:28;102988.28;;;3.85;100.00
13420;BME280;6781;58.440;15.470;2023-01-26T04:33:55;102992.56;;;3.86;100.00
13420;BME280;6781;58.440;15.470;2023-01-26T04:36:22;102991.78;;;3.80;100.00
13420;BME280;6781;58.440;15.470;2023-01-26T04:38:50;102998.63;;;3.79;100.00
13420;BME280;6781;58.440;15.470;2023-01-26T04:41:17;103012.25;;;3.84;100.00
13420;BME280;6781;58.440;15.470;2023-01-26T04:43:45;103014.00;;;3.81;100.00
13420;BME280;6781;58.440;15.470;2023-01-26T04:46:12;103026.78;;;3.85;100.00
13420;BME280;6781;58.440;15.470;2023-01-26T04:48:38;103029.41;;;3.79;100.00
13420;BME280;6781;58.440;15.470;2023-01-26T04:51:06;103031.13;;;3.79;100.00
13420;BME280;6781;58.440;15.470;2023-01-26T04:53:33;103040.53;;;3.80;100.00
13420;BME280;6781;58.440;15.470;2023-01-26T04:56:02;103046.53;;;3.79;100.00
13420;BME280;6781;58.440;15.470;2023-01-26T04:58:28;103055.97;;;3.77;100.00
13420;BME280;6781;58.440;15.470;2023-01-26T05:00:56;103061.09;;;3.78;100.00
13420;BME280;6781;58.440;15.470;2023-01-26T05:03:23;103065.38;;;3.76;100.00
13420;BME280;6781;58.440;15.470;2023-01-26T05:05:51;103070.53;;;3.76;100.00
13420;BME280;6781;58.440;15.470;2023-01-26T05:08:18;103074.81;;;3.76;100.00
13420;BME280;6781;58.440;15.470;2023-01-26T05:10:45;103085.94;;;3.73;100.00
13420;BME280;6781;58.440;15.470;2023-01-26T05:13:14;103098.75;;;3.76;100.00
13420;BME280;6781;58.440;15.470;2023-01-26T05:15:40;103095.34;;;3.76;100.00
13420;BME280;6781;58.440;15.470;2023-01-26T05:18:08;103103.03;;;3.77;100.00
13420;BME280;6781;58.440;15.470;2023-01-26T05:20:35;103110.72;;;3.77;100.00
13420;BME280;6781;58.440;15.470;2023-01-26T05:23:02;103111.59;;;3.76;100.00
13420;BME280;6781;58.440;15.470;2023-01-26T05:25:28;103113.31;;;3.74;100.00
13420;BME280;6781;58.440;15.470;2023-01-26T05:27:55;103120.13;;;3.78;100.00
13420;BME280;6781;58.440;15.470;2023-01-26T05:30:24;103128.69;;;3.77;100.00
13420;BME280;6781;58.440;15.470;2023-01-26T05:32:50;103130.41;;;3.74;100.00
13420;BME280;6781;58.440;15.470;2023-01-26T05:35:21;103139.00;;;3.73;100.00
13420;BME280;6781;58.440;15.470;2023-01-26T05:37:51;103140.66;;;3.77;100.00
13420;BME280;6781;58.440;15.470;2023-01-26T05:40:18;103152.66;;;3.76;100.00
13420;BME280;6781;58.440;15.470;2023-01-26T05:42:49;103157.78;;;3.76;100.00
13420;BME280;6781;58.440;15.470;2023-01-26T05:45:19;103169.72;;;3.80;100.00
13420;BME280;6781;58.440;15.470;2023-01-26T05:47:54;103172.31;;;3.77;100.00
13420;BME280;6781;58.440;15.470;2023-01-26T05:50:24;103187.66;;;3.82;100.00
13420;BME280;6781;58.440;15.470;2023-01-26T05:53:15;103183.44;;;3.76;100.00
13420;BME280;6781;58.440;15.470;2023-01-26T05:55:44;103197.13;;;3.78;100.00
13420;BME280;6781;58.440;15.470;2023-01-26T05:58:34;103197.13;;;3.78;100.00
13420;BME280;6781;58.440;15.470;2023-01-26T06:01:03;103210.84;;;3.71;100.00
13420;BME280;6781;58.440;15.470;2023-01-26T06:12:18;103253.56;;;3.78;100.00
13420;BME280;6781;58.440;15.470;2023-01-26T06:14:45;103258.72;;;3.77;100.00
13420;BME280;6781;58.440;15.470;2023-01-26T06:17:12;103270.66;;;3.82;100.00
13420;BME280;6781;58.440;15.470;2023-01-26T06:19:40;103282.63;;;3.83;100.00
13420;BME280;6781;58.440;15.470;2023-01-26T06:25:23;103315.06;;;3.93;100.00
13420;BME280;6781;58.440;15.470;2023-01-26T06:27:52;103329.59;;;3.98;100.00
13420;BME280;6781;58.440;15.470;2023-01-26T06:30:31;103341.59;;;3.96;100.00
13420;BME280;6781;58.440;15.470;2023-01-26T06:32:58;103350.13;;;3.98;100.00
13420;BME280;6781;58.440;15.470;2023-01-26T06:35:25;103360.41;;;3.99;100.00
13420;BME280;6781;58.440;15.470;2023-01-26T06:37:52;103368.06;;;4.04;100.00
13420;BME280;6781;58.440;15.470;2023-01-26T06:40:23;103376.63;;;4.06;100.00
13420;BME280;6781;58.440;15.470;2023-01-26T06:58:40;103469.00;;;4.15;100.00
13420;BME280;6781;58.440;15.470;2023-01-26T14:50:48;101947.97;;;1.85;100.00
13420;BME280;6781;58.440;15.470;2023-01-26T14:53:29;101959.13;;;1.81;100.00
13420;BME280;6781;58.440;15.470;2023-01-26T14:55:57;101956.69;;;1.75;100.00
13420;BME280;6781;58.440;15.470;2023-01-26T14:58:26;101955.03;;;1.74;100.00
13420;BME280;6781;58.440;15.470;2023-01-26T15:00:53;101955.22;;;1.65;100.00
13420;BME280;6781;58.440;15.470;2023-01-26T15:03:25;101969.81;;;1.60;100.00
13420;BME280;6781;58.440;15.470;2023-01-26T15:06:15;101965.63;;;1.56;100.00
13420;BME280;6781;58.440;15.470;2023-01-26T15:08:54;101965.81;;;1.47;100.00
13420;BME280;6781;58.440;15.470;2023-01-26T15:11:36;101979.41;;;1.49;100.00
13420;BME280;6781;58.440;15.470;2023-01-26T15:14:32;101986.31;;;1.44;100.00
13420;BME280;6781;58.440;15.470;2023-01-26T15:17:25;101981.31;;;1.38;100.00
13420;BME280;6781;58.440;15.470;2023-01-26T15:38:13;102027.88;;;1.04;100.00
13420;BME280;6781;58.440;15.470;2023-01-26T15:40:54;102038.19;;;0.98;100.00
13420;BME280;6781;58.440;15.470;2023-01-26T15:43:28;102037.34;;;0.97;100.00
13420;BME280;6781;58.440;15.470;2023-01-26T15:46:12;102056.94;;;0.97;100.00
13420;BME280;6781;58.440;15.470;2023-01-26T15:49:21;102076.56;;;0.93;100.00
13420;BME280;6781;58.440;15.470;2023-01-26T15:58:16;102087.94;;;0.73;100.00
13420;BME280;6781;58.440;15.470;2023-01-26T16:00:44;102095.63;;;0.70;100.00
13420;BME280;6781;58.440;15.470;2023-01-26T16:09:46;102107.59;;;0.68;100.00
13420;BME280;6781;58.440;15.470;2023-01-26T16:12:29;102102.56;;;0.60;100.00
13420;BME280;6781;58.440;15.470;2023-01-26T16:17:55;102118.00;;;0.51;100.00
13420;BME280;6781;58.440;15.470;2023-01-26T16:26:24;102125.75;;;0.43;100.00
13420;BME280;6781;58.440;15.470;2023-01-26T16:59:41;102314.75;;;0.25;100.00
13420;BME280;6781;58.440;15.470;2023-01-26T17:02:21;102314.22;;;-0.17;100.00
13420;BME280;6781;58.440;15.470;2023-01-26T17:04:56;102314.22;;;-0.14;100.00
13420;BME280;6781;58.440;15.470;2023-01-26T17:07:24;102315.03;;;-0.12;100.00
13420;BME280;6781;58.440;15.470;2023-01-26T17:13:01;102307.47;;;-0.22;100.00
13420;BME280;6781;58.440;15.470;2023-01-26T17:16:08;102304.88;;;-0.15;100.00
13420;BME280;6781;58.440;15.470;2023-01-26T17:18:50;102293.84;;;-0.20;100.00
13420;BME280;6781;58.440;15.470;2023-01-26T17:21:32;102286.22;;;-0.20;100.00
13420;BME280;6781;58.440;15.470;2023-01-26T17:24:02;102293.81;;;-0.15;100.00
13420;BME280;6781;58.440;15.470;2023-01-26T17:26:33;102300.63;;;-0.14;100.00
13420;BME280;6781;58.440;15.470;2023-01-26T17:29:05;102294.69;;;-0.18;100.00
13420;BME280;6781;58.440;15.470;2023-01-26T17:31:39;102298.91;;;-0.14;100.00
13420;BME280;6781;58.440;15.470;2023-01-26T17:34:09;102306.59;;;-0.20;100.00
13420;BME280;6781;58.440;15.470;2023-01-26T17:36:36;102309.19;;;-0.24;100.00
13420;BME280;6781;58.440;15.470;2023-01-26T17:39:03;102311.72;;;-0.23;100.00
13420;BME280;6781;58.440;15.470;2023-01-26T17:41:30;102312.59;;;-0.25;100.00
13420;BME280;6781;58.440;15.470;2023-01-26T17:44:48;102321.91;;;-0.23;100.00
13420;BME280;6781;58.440;15.470;2023-01-26T17:47:39;102324.50;;;-0.32;100.00
13420;BME280;6781;58.440;15.470;2023-01-26T17:50:27;102326.22;;;-0.34;100.00
13420;BME280;6781;58.440;15.470;2023-01-26T17:52:56;102334.75;;;-0.40;100.00
13420;BME280;6781;58.440;15.470;2023-01-26T17:55:27;102333.91;;;-0.43;100.00
13420;BME280;6781;58.440;15.470;2023-01-26T18:04:02;102333.91;;;-0.39;100.00
13420;BME280;6781;58.440;15.470;2023-01-26T18:06:29;102333.88;;;-0.37;100.00
13420;BME280;6781;58.440;15.470;2023-01-26T18:14:28;102340.75;;;-0.53;100.00
13420;BME280;6781;58.440;15.470;2023-01-26T18:17:16;102347.53;;;-0.50;100.00
13420;BME280;6781;58.440;15.470;2023-01-26T18:47:52;102403.69;;;-0.75;100.00
13420;BME280;6781;58.440;15.470;2023-01-26T18:50:30;102406.22;;;-0.73;100.00
13420;BME280;6781;58.440;15.470;2023-01-26T18:53:20;102407.06;;;-0.70;100.00
13420;BME280;6781;58.440;15.470;2023-01-26T18:56:19;102423.22;;;-0.77;100.00
13420;BME280;6781;58.440;15.470;2023-01-26T19:38:55;102475.88;;;-1.05;100.00
13420;BME280;6781;58.440;15.470;2023-01-26T19:41:26;102469.91;;;-0.99;100.00
13420;BME280;6781;58.440;15.470;2023-01-26T19:43:53;102467.38;;;-0.96;100.00
13420;BME280;6781;58.440;15.470;2023-01-26T19:46:20;102469.91;;;-0.99;100.00
13420;BME280;6781;58.440;15.470;2023-01-26T19:48:51;102477.56;;;-1.04;100.00
13420;BME280;6781;58.440;15.470;2023-01-26T19:51:53;102475.03;;;-1.05;100.00
13420;BME280;6781;58.440;15.470;2023-01-26T19:54:23;102478.41;;;-0.97;100.00
13420;BME280;6781;58.440;15.470;2023-01-26T19:56:50;102486.06;;;-1.00;100.00
13420;BME280;6781;58.440;15.470;2023-01-26T19:59:23;102500.47;;;-1.05;100.00
13420;BME280;6781;58.440;15.470;2023-01-26T20:01:51;102497.94;;;-1.11;100.00
13420;BME280;6781;58.440;15.470;2023-01-26T20:04:18;102497.06;;;-1.10;100.00
13420;BME280;6781;58.440;15.470;2023-01-26T20:06:47;102496.22;;;-1.17;100.00
13420;BME280;6781;58.440;15.470;2023-01-26T20:09:14;102486.91;;;-1.16;100.00
13420;BME280;6781;58.440;15.470;2023-01-26T20:11:42;102496.22;;;-1.20;100.00
13420;BME280;6781;58.440;15.470;2023-01-26T20:14:18;102500.47;;;-1.17;100.00
13420;BME280;6781;58.440;15.470;2023-01-26T20:16:55;102498.78;;;-1.15;100.00
13420;BME280;6781;58.440;15.470;2023-01-26T20:19:41;102497.94;;;-1.17;100.00
13420;BME280;6781;58.440;15.470;2023-01-26T20:22:36;102491.97;;;-1.22;100.00
13420;BME280;6781;58.440;15.470;2023-01-26T20:25:08;102508.13;;;-1.10;100.00
13420;BME280;6781;58.440;15.470;2023-01-26T20:27:40;102519.13;;;-1.12;100.00
13420;BME280;6781;58.440;15.470;2023-01-26T20:30:07;102528.47;;;-1.22;100.00
13420;BME280;6781;58.440;15.470;2023-01-26T20:32:34;102526.75;;;-1.21;100.00
13420;BME280;6781;58.440;15.470;2023-01-26T20:35:01;102520.81;;;-1.26;100.00
13420;BME280;6781;58.440;15.470;2023-01-26T20:37:28;102531.00;;;-1.20;100.00
13420;BME280;6781;58.440;15.470;2023-01-26T20:39:55;102537.78;;;-1.35;100.00
13420;BME280;6781;58.440;15.470;2023-01-26T20:42:23;102536.06;;;-1.33;100.00
13420;BME280;6781;58.440;15.470;2023-01-26T20:44:53;102544.56;;;-1.37;100.00
13420;BME280;6781;58.440;15.470;2023-01-26T20:47:23;102552.19;;;-1.31;100.00
13420;BME280;6781;58.440;15.470;2023-01-26T20:49:50;102566.63;;;-1.29;100.00
13420;BME280;6781;58.440;15.470;2023-01-26T20:52:20;102569.16;;;-1.34;100.00
13420;BME280;6781;58.440;15.470;2023-01-26T20:54:47;102565.78;;;-1.32;100.00
13420;BME280;6781;58.440;15.470;2023-01-26T20:57:14;102576.81;;;-1.29;100.00
13420;BME280;6781;58.440;15.470;2023-01-26T21:02:56;102583.53;;;-1.44;100.00
13420;BME280;6781;58.440;15.470;2023-01-26T21:05:28;102586.06;;;-1.47;100.00
13420;BME280;6781;58.440;15.470;2023-01-26T21:17:08;102624.25;;;-1.47;100.00
13420;BME280;6781;58.440;15.470;2023-01-26T21:23:05;102628.41;;;-1.66;100.00
13420;BME280;6781;58.440;15.470;2023-01-26T21:25:39;102654.72;;;-1.56;100.00
13420;BME280;6781;58.440;15.470;2023-01-26T21:28:07;102668.31;;;-1.54;100.00
13420;BME280;6781;58.440;15.470;2023-01-26T21:30:34;102677.66;;;-1.47;100.00
13420;BME280;6781;58.440;15.470;2023-01-26T21:33:03;102688.69;;;-1.48;100.00
13420;BME280;6781;58.440;15.470;2023-01-26T21:35:30;102695.47;;;-1.48;100.00
13420;BME280;6781;58.440;15.470;2023-01-26T21:37:57;102705.66;;;-1.44;100.00
13420;BME280;6781;58.440;15.470;2023-01-26T21:40:26;102702.19;;;-1.58;100.00
13420;BME280;6781;58.440;15.470;2023-01-26T21:42:53;102717.50;;;-1.49;100.00
13420;BME280;6781;58.440;15.470;2023-01-26T21:45:20;102727.69;;;-1.49;100.00
13420;BME280;6781;58.440;15.470;2023-01-26T21:48:13;102728.50;;;-1.53;100.00
13420;BME280;6781;58.440;15.470;2023-01-26T21:51:26;102735.28;;;-1.53;100.00
13420;BME280;6781;58.440;15.470;2023-01-26T21:54:10;102730.97;;;-1.65;100.00
13420;BME280;6781;58.440;15.470;2023-01-26T21:59:30;102747.94;;;-1.64;100.00
13420;BME280;6781;58.440;15.470;2023-01-26T22:01:57;102744.50;;;-1.72;100.00
13420;BME280;6781;58.440;15.470;2023-01-26T22:04:27;102744.50;;;-1.78;100.00
13420;BME280;6781;58.440;15.470;2023-01-26T22:06:55;102742.59;;;-2.04;100.00
13420;BME280;6781;58.440;15.470;2023-01-26T22:09:26;102752.97;;;-1.79;100.00
13420;BME280;6781;58.440;15.470;2023-01-26T22:11:55;102750.34;;;-1.88;100.00
13420;BME280;6781;58.440;15.470;2023-01-26T22:14:37;102764.66;;;-2.00;100.00
13420;BME280;6781;58.440;15.470;2023-01-26T22:17:05;102759.53;;;-2.06;100.00
13420;BME280;6781;58.440;15.470;2023-01-26T22:19:35;102761.38;;;-1.86;100.00
13420;BME280;6781;58.440;15.470;2023-01-26T22:22:02;102764.75;;;-1.90;100.00
13420;BME280;6781;58.440;15.470;2023-01-26T22:24:30;102778.38;;;-1.81;100.00
13420;BME280;6781;58.440;15.470;2023-01-26T22:26:57;102793.63;;;-1.79;100.00
13420;BME280;6781;58.440;15.470;2023-01-26T22:29:27;102798.72;;;-1.79;100.00
13420;BME280;6781;58.440;15.470;2023-01-26T22:32:03;102808.91;;;-1.79;100.00
13420;BME280;6781;58.440;15.470;2023-01-26T22:34:38;102814.84;;;-1.79;100.00
13420;BME280;6781;58.440;15.470;2023-01-26T22:37:22;102797.56;;;-2.13;100.00
13420;BME280;6781;58.440;15.470;2023-01-26T22:39:53;102787.41;;;-2.15;100.00
13420;BME280;6781;58.440;15.470;2023-01-26T22:42:23;102786.56;;;-2.14;100.00
13420;BME280;6781;58.440;15.470;2023-01-26T22:44:51;102781.41;;;-2.21;100.00
13420;BME280;6781;58.440;15.470;2023-01-26T22:47:23;102780.44;;;-2.33;100.00
13420;BME280;6781;58.440;15.470;2023-01-26T22:49:52;102783.91;;;-2.26;100.00
13420;BME280;6781;58.440;15.470;2023-01-26T22:52:21;102789.94;;;-2.15;100.00
13420;BME280;6781;58.440;15.470;2023-01-26T22:54:50;102781.31;;;-2.32;100.00
13420;BME280;6781;58.440;15.470;2023-01-26T22:57:20;102783.16;;;-2.16;100.00
13420;BME280;6781;58.440;15.470;2023-01-26T22:59:49;102778.59;;;-2.47;100.00
13420;BME280;6781;58.440;15.470;2023-01-26T23:05:09;102782.84;;;-2.46;100.00
13420;BME280;6781;58.440;15.470;2023-01-26T23:07:37;102785.44;;;-2.43;100.00
13420;BME280;6781;58.440;15.470;2023-01-26T23:10:06;102799.97;;;-2.30;100.00
13420;BME280;6781;58.440;15.470;2023-01-26T23:12:37;102806.66;;;-2.38;100.00
13420;BME280;6781;58.440;15.470;2023-01-26T23:15:06;102810.91;;;-2.36;100.00
13420;BME280;6781;58.440;15.470;2023-01-26T23:17:33;102794.53;;;-2.60;100.00
13420;BME280;6781;58.440;15.470;2023-01-26T23:20:00;102794.69;;;-2.47;100.00
13420;BME280;6781;58.440;15.470;2023-01-26T23:22:28;102805.06;;;-2.27;100.00
13420;BME280;6781;58.440;15.470;2023-01-26T23:24:55;102819.50;;;-2.24;100.00
13420;BME280;6781;58.440;15.470;2023-01-26T23:27:41;102824.59;;;-2.21;100.00
13420;BME280;6781;58.440;15.470;2023-01-26T23:30:09;102830.53;;;-2.21;100.00
13420;BME280;6781;58.440;15.470;2023-01-26T23:32:36;102833.72;;;-2.40;100.00
13420;BME280;6781;58.440;15.470;2023-01-26T23:35:03;102838.81;;;-2.40;100.00
13420;BME280;6781;58.440;15.470;2023-01-26T23:37:31;102835.31;;;-2.48;100.00
13420;BME280;6781;58.440;15.470;2023-01-26T23:39:58;102772.38;;;-2.74;100.00
13420;BME280;6781;58.440;15.470;2023-01-26T23:42:25;102836.16;;;-2.49;100.00
13420;BME280;6781;58.440;15.470;2023-01-26T23:44:52;102825.19;;;-2.45;100.00
13420;BME280;6781;58.440;15.470;2023-01-26T23:47:19;102827.69;;;-2.48;100.00
13420;BME280;6781;58.440;15.470;2023-01-26T23:50:01;102828.56;;;-2.46;100.00
13420;BME280;6781;58.440;15.470;2023-01-26T23:52:28;102831.91;;;-2.50;100.00
13420;BME280;6781;58.440;15.470;2023-01-26T23:54:56;102840.19;;;-2.65;100.00
13420;BME280;6781;58.440;15.470;2023-01-26T23:57:23;102837.84;;;-2.50;100.00
13420;BME280;6781;58.440;15.470;2023-01-26T23:59:50;102847.22;;;-2.46;100.00
